createdAt,value
2023-04-16T00:00:06.768Z,52.53
2023-04-16T00:01:06.729Z,57.69
2023-04-16T00:02:06.710Z,47.21
2023-04-16T00:03:07.364Z,48.82
2023-04-16T00:04:06.797Z,58.33
2023-04-16T00:05:06.713Z,57.04
2023-04-16T00:06:06.924Z,56.88
2023-04-16T00:07:06.652Z,55.91
2023-04-16T00:08:06.543Z,56.24
2023-04-16T00:09:06.639Z,54.79
2023-04-16T00:10:06.592Z,57.04
2023-04-16T00:11:07.648Z,52.05
2023-04-16T00:12:06.600Z,57.69
2023-04-16T00:13:06.587Z,57.85
2023-04-16T00:14:06.606Z,59.46
2023-04-16T00:15:06.561Z,53.17
2023-04-16T00:16:06.529Z,58.49
2023-04-16T00:17:07.719Z,59.46
2023-04-16T00:18:06.503Z,56.88
2023-04-16T00:19:06.495Z,49.15
2023-04-16T00:20:06.608Z,52.69
2023-04-16T00:21:06.606Z,50.60
2023-04-16T00:22:06.660Z,58.65
2023-04-16T00:23:06.517Z,59.46
2023-04-16T00:24:06.585Z,52.53
2023-04-16T00:25:06.497Z,50.43
2023-04-16T00:26:07.552Z,57.36
2023-04-16T00:27:06.494Z,58.81
2023-04-16T00:28:06.519Z,57.52
2023-04-16T00:29:06.438Z,49.63
2023-04-16T00:30:06.476Z,58.65
2023-04-16T00:31:06.534Z,57.36
2023-04-16T00:32:06.455Z,52.53
2023-04-16T00:33:06.438Z,56.88
2023-04-16T00:34:06.371Z,58.17
2023-04-16T00:35:06.369Z,59.30
2023-04-16T00:36:06.459Z,59.62
2023-04-16T00:37:06.400Z,54.79
2023-04-16T00:38:06.471Z,53.66
2023-04-16T00:39:06.562Z,54.30
2023-04-16T00:40:06.394Z,58.65
2023-04-16T00:41:06.427Z,58.81
2023-04-16T00:42:06.463Z,57.04
2023-04-16T00:43:06.444Z,57.85
2023-04-16T00:44:06.368Z,58.01
2023-04-16T00:45:06.426Z,57.85
2023-04-16T00:46:06.388Z,55.91
2023-04-16T00:47:06.323Z,59.14
2023-04-16T00:48:06.360Z,59.14
2023-04-16T00:49:06.396Z,61.55
2023-04-16T00:50:06.248Z,58.49
2023-04-16T00:51:06.217Z,58.65
2023-04-16T00:52:06.288Z,61.39
2023-04-16T00:53:06.203Z,54.95
2023-04-16T00:54:06.237Z,58.17
2023-04-16T00:55:06.281Z,62.20
2023-04-16T00:56:06.228Z,56.56
2023-04-16T00:57:06.197Z,54.79
2023-04-16T00:58:06.292Z,58.17
2023-04-16T00:59:06.252Z,58.49
2023-04-16T01:00:06.376Z,56.88
2023-04-16T01:01:06.319Z,51.40
2023-04-16T01:02:06.381Z,50.76
2023-04-16T01:03:06.406Z,57.85
2023-04-16T01:04:06.388Z,61.39
2023-04-16T01:05:06.198Z,54.79
2023-04-16T01:06:06.376Z,63.33
2023-04-16T01:07:06.171Z,65.42
2023-04-16T01:08:06.124Z,59.30
2023-04-16T01:09:06.190Z,58.01
2023-04-16T01:10:06.175Z,56.07
2023-04-16T01:11:06.573Z,58.97
2023-04-16T01:12:06.149Z,56.24
2023-04-16T01:13:06.123Z,47.37
2023-04-16T01:14:06.071Z,53.98
2023-04-16T02:32:25.480Z,58.65
2023-04-16T02:33:25.461Z,59.14
2023-04-16T02:34:25.519Z,57.04
2023-04-16T02:35:25.469Z,45.92
2023-04-16T02:36:25.496Z,46.89
2023-04-16T02:37:25.435Z,49.47
2023-04-16T02:38:25.556Z,54.95
2023-04-16T02:39:25.517Z,57.85
2023-04-16T02:40:25.492Z,56.56
2023-04-16T02:41:25.462Z,49.95
2023-04-16T02:42:25.509Z,62.68
2023-04-16T02:43:25.446Z,58.97
2023-04-16T02:44:25.465Z,55.27
2023-04-16T02:45:25.461Z,60.59
2023-04-16T02:46:25.928Z,62.20
2023-04-16T02:47:25.531Z,61.39
2023-04-16T02:48:25.519Z,49.63
2023-04-16T02:49:25.452Z,51.72
2023-04-16T02:50:25.489Z,54.62
2023-04-16T02:51:25.452Z,58.17
2023-04-16T02:52:25.463Z,58.65
2023-04-16T02:53:25.406Z,51.72
2023-04-16T02:54:25.386Z,62.20
2023-04-16T02:55:25.368Z,56.07
2023-04-16T02:56:25.329Z,59.14
2023-04-16T02:57:25.368Z,62.04
2023-04-16T02:58:25.346Z,56.24
2023-04-16T02:59:25.254Z,55.59
2023-04-16T03:00:25.281Z,57.69
2023-04-16T03:01:25.321Z,49.31
2023-04-16T03:02:26.257Z,57.36
2023-04-16T03:03:25.272Z,51.40
2023-04-16T03:04:25.266Z,52.21
2023-04-16T03:05:25.230Z,48.50
2023-04-16T03:06:25.234Z,58.81
2023-04-16T03:07:25.206Z,54.95
2023-04-16T03:08:25.225Z,62.20
2023-04-16T03:09:25.249Z,60.26
2023-04-16T03:10:25.188Z,65.42
2023-04-16T03:11:25.322Z,54.62
2023-04-16T03:12:25.341Z,57.04
2023-04-16T03:13:25.312Z,59.30
2023-04-16T03:14:25.249Z,53.01
2023-04-16T03:15:25.361Z,57.04
2023-04-16T03:16:26.223Z,51.40
2023-04-16T03:17:25.367Z,60.75
2023-04-16T03:18:25.193Z,48.66
2023-04-16T03:19:25.220Z,57.20
2023-04-16T03:20:25.245Z,59.14
2023-04-16T03:21:25.193Z,56.07
2023-04-16T03:22:25.088Z,59.94
2023-04-16T03:23:25.109Z,60.75
2023-04-16T03:24:25.181Z,61.23
2023-04-16T03:25:25.104Z,57.69
2023-04-16T03:26:25.118Z,57.20
2023-04-16T03:27:25.080Z,57.52
2023-04-16T03:28:25.104Z,57.69
2023-04-16T03:29:25.143Z,52.69
2023-04-16T03:30:25.155Z,58.17
2023-04-16T03:31:25.645Z,48.98
2023-04-16T03:32:25.205Z,57.69
2023-04-16T03:33:25.108Z,60.75
2023-04-16T03:34:25.176Z,58.81
2023-04-16T03:35:25.096Z,58.49
2023-04-16T03:36:25.157Z,59.14
2023-04-16T03:37:25.092Z,53.50
2023-04-16T03:38:25.160Z,49.79
2023-04-16T03:39:25.058Z,57.36
2023-04-16T03:40:25.043Z,53.33
2023-04-16T03:41:25.047Z,57.52
2023-04-16T03:42:25.094Z,57.69
2023-04-16T03:43:25.042Z,62.52
2023-04-16T03:44:24.969Z,60.42
2023-04-16T03:45:24.947Z,59.78
2023-04-16T03:46:25.035Z,58.17
2023-04-16T03:47:25.041Z,59.14
2023-04-16T03:48:25.061Z,59.62
2023-04-16T03:49:24.989Z,61.55
2023-04-16T03:50:25.005Z,63.00
2023-04-16T03:51:24.973Z,61.39
2023-04-16T03:52:24.966Z,61.07
2023-04-16T03:53:25.024Z,63.16
2023-04-16T03:54:24.951Z,61.71
2023-04-16T03:55:25.065Z,61.39
2023-04-16T03:56:24.949Z,71.22
2023-04-16T03:57:24.999Z,63.33
2023-04-16T03:58:24.966Z,64.45
2023-04-16T03:59:25.049Z,62.04
2023-04-16T04:00:24.824Z,63.81
2023-04-16T04:01:24.853Z,63.16
2023-04-16T04:02:25.068Z,63.33
2023-04-16T04:03:25.041Z,63.00
2023-04-16T04:04:24.999Z,63.16
2023-04-16T04:05:24.820Z,63.16
2023-04-16T04:06:24.818Z,63.97
2023-04-16T04:07:24.838Z,64.78
2023-04-16T04:08:24.797Z,64.94
2023-04-16T04:09:24.808Z,65.42
2023-04-16T04:10:24.802Z,62.20
2023-04-16T04:11:24.718Z,64.29
2023-04-16T04:12:24.839Z,64.13
2023-04-16T04:13:24.813Z,65.26
2023-04-16T04:14:24.834Z,65.10
2023-04-16T04:15:24.879Z,59.46
2023-04-16T04:16:24.918Z,63.81
2023-04-16T04:17:24.879Z,68.00
2023-04-16T04:18:24.863Z,68.64
2023-04-16T04:19:24.792Z,68.16
2023-04-16T04:20:24.849Z,65.26
2023-04-16T04:21:24.788Z,64.29
2023-04-16T04:22:24.829Z,65.26
2023-04-16T04:23:24.768Z,66.71
2023-04-16T04:24:24.679Z,68.16
2023-04-16T04:25:24.722Z,68.64
2023-04-16T04:26:24.756Z,69.77
2023-04-16T04:27:24.740Z,71.54
2023-04-16T04:28:24.738Z,65.58
2023-04-16T04:29:24.706Z,68.80
2023-04-16T04:30:24.675Z,69.29
2023-04-16T04:31:24.696Z,68.80
2023-04-16T04:32:25.165Z,70.42
2023-04-16T04:33:24.671Z,69.61
2023-04-16T04:34:24.685Z,68.16
2023-04-16T04:35:24.676Z,71.06
2023-04-16T04:36:24.685Z,74.28
2023-04-16T04:37:24.745Z,64.13
2023-04-16T04:38:24.639Z,70.74
2023-04-16T04:39:24.582Z,66.06
2023-04-16T04:40:24.561Z,65.90
2023-04-16T04:41:24.752Z,65.74
2023-04-16T04:42:24.561Z,64.61
2023-04-16T04:43:24.559Z,66.23
2023-04-16T04:44:24.524Z,66.87
2023-04-16T04:45:24.549Z,67.03
2023-04-16T04:46:24.604Z,66.39
2023-04-16T04:47:24.618Z,68.48
2023-04-16T04:48:24.649Z,67.68
2023-04-16T04:49:24.569Z,70.42
2023-04-16T04:50:24.566Z,67.51
2023-04-16T04:51:24.659Z,67.19
2023-04-16T04:52:24.538Z,61.23
2023-04-16T04:53:24.527Z,60.91
2023-04-16T04:54:24.560Z,61.55
2023-04-16T04:55:24.510Z,59.94
2023-04-16T04:56:24.506Z,63.97
2023-04-16T04:57:24.416Z,64.13
2023-04-16T04:58:24.559Z,61.87
2023-04-16T04:59:24.532Z,63.49
2023-04-16T05:00:24.518Z,65.26
2023-04-16T05:01:24.519Z,64.78
2023-04-16T05:02:24.571Z,62.84
2023-04-16T05:03:24.464Z,63.16
2023-04-16T05:04:24.377Z,59.30
2023-04-16T05:05:24.515Z,59.62
2023-04-16T05:06:24.371Z,61.07
2023-04-16T05:07:24.376Z,59.78
2023-04-16T05:08:24.332Z,61.07
2023-04-16T05:09:24.504Z,58.17
2023-04-16T05:10:24.426Z,60.42
2023-04-16T05:11:24.401Z,64.45
2023-04-16T05:12:24.419Z,61.71
2023-04-16T05:13:24.445Z,61.71
2023-04-16T05:14:24.367Z,63.33
2023-04-16T05:15:24.353Z,58.65
2023-04-16T05:16:24.414Z,60.75
2023-04-16T05:17:24.391Z,67.84
2023-04-16T05:18:24.367Z,66.39
2023-04-16T05:19:24.337Z,63.97
2023-04-16T05:20:24.331Z,63.00
2023-04-16T05:21:24.409Z,65.42
2023-04-16T05:22:24.314Z,63.00
2023-04-16T05:23:24.356Z,62.52
2023-04-16T05:24:24.345Z,62.36
2023-04-16T05:25:24.362Z,61.23
2023-04-16T05:26:24.290Z,65.74
2023-04-16T05:27:31.548Z,65.10
2023-04-16T05:28:35.254Z,65.42
2023-04-16T05:29:24.192Z,63.49
2023-04-16T05:30:24.220Z,61.55
2023-04-16T05:31:24.195Z,62.52
2023-04-16T05:32:24.509Z,64.29
2023-04-16T05:33:24.185Z,68.16
2023-04-16T05:34:24.174Z,66.55
2023-04-16T05:35:24.119Z,67.51
2023-04-16T05:36:24.203Z,71.06
2023-04-16T05:37:24.216Z,67.68
2023-04-16T05:38:24.234Z,70.58
2023-04-16T05:39:24.195Z,68.16
2023-04-16T05:40:24.190Z,69.29
2023-04-16T05:41:24.220Z,65.90
2023-04-16T05:42:24.174Z,63.81
2023-04-16T05:43:24.222Z,60.26
2023-04-16T05:44:24.283Z,59.30
2023-04-16T05:45:25.572Z,58.17
2023-04-16T05:46:24.240Z,60.26
2023-04-16T05:47:24.164Z,61.23
2023-04-16T05:48:24.246Z,59.30
2023-04-16T05:49:24.197Z,61.07
2023-04-16T05:50:24.191Z,61.07
2023-04-16T05:51:24.088Z,60.75
2023-04-16T05:52:25.150Z,61.39
2023-04-16T05:53:24.109Z,58.65
2023-04-16T05:54:24.116Z,55.75
2023-04-16T05:55:24.125Z,60.26
2023-04-16T05:56:24.058Z,62.68
2023-04-16T05:57:24.115Z,60.26
2023-04-16T05:58:24.081Z,60.59
2023-04-16T05:59:24.038Z,60.91
2023-04-16T06:00:24.075Z,60.10
2023-04-16T06:01:24.067Z,60.42
2023-04-16T06:02:24.047Z,63.81
2023-04-16T06:03:24.063Z,62.04
2023-04-16T06:04:23.990Z,63.00
2023-04-16T06:05:24.024Z,68.16
2023-04-16T06:06:23.919Z,73.80
2023-04-16T06:07:23.923Z,66.71
2023-04-16T06:08:24.012Z,67.84
2023-04-16T06:09:24.151Z,67.03
2023-04-16T06:10:23.993Z,67.03
2023-04-16T06:11:24.062Z,64.78
2023-04-16T06:12:23.940Z,59.78
2023-04-16T06:13:24.066Z,62.20
2023-04-16T06:14:23.999Z,67.19
2023-04-16T06:15:23.926Z,68.64
2023-04-16T06:16:24.128Z,68.00
2023-04-16T06:17:23.987Z,67.03
2023-04-16T06:18:23.905Z,63.97
2023-04-16T06:19:23.935Z,59.78
2023-04-16T06:20:23.905Z,60.91
2023-04-16T06:21:24.015Z,61.23
2023-04-16T06:22:23.888Z,60.75
2023-04-16T06:23:23.855Z,66.55
2023-04-16T06:24:23.822Z,60.59
2023-04-16T06:25:23.796Z,61.23
2023-04-16T06:26:23.760Z,64.94
2023-04-16T06:27:23.864Z,64.29
2023-04-16T06:28:23.785Z,66.71
2023-04-16T06:29:33.575Z,62.20
2023-04-16T06:30:26.610Z,60.26
2023-04-16T06:31:23.789Z,62.84
2023-04-16T06:32:23.990Z,61.07
2023-04-16T06:33:23.865Z,60.59
2023-04-16T06:34:23.946Z,63.00
2023-04-16T06:35:23.752Z,62.84
2023-04-16T06:36:23.869Z,62.36
2023-04-16T06:37:23.899Z,61.71
2023-04-16T06:38:24.095Z,61.39
2023-04-16T06:39:23.783Z,62.84
2023-04-16T06:40:23.785Z,62.20
2023-04-16T06:41:23.746Z,60.75
2023-04-16T06:42:23.741Z,61.39
2023-04-16T06:43:23.773Z,63.33
2023-04-16T06:44:23.757Z,62.04
2023-04-16T06:45:23.710Z,65.10
2023-04-16T06:46:23.761Z,62.20
2023-04-16T06:47:23.724Z,63.65
2023-04-16T06:48:23.627Z,61.39
2023-04-16T06:49:23.664Z,59.46
2023-04-16T06:50:23.604Z,60.42
2023-04-16T06:51:23.629Z,57.69
2023-04-16T06:52:23.698Z,59.78
2023-04-16T06:53:23.587Z,60.91
2023-04-16T06:54:23.780Z,58.97
2023-04-16T06:55:23.763Z,56.88
2023-04-16T06:56:23.642Z,57.04
2023-04-16T06:57:23.785Z,63.49
2023-04-16T06:58:23.626Z,60.75
2023-04-16T06:59:23.854Z,60.10
2023-04-16T07:00:23.659Z,63.00
2023-04-16T07:01:23.656Z,59.78
2023-04-16T07:02:23.716Z,65.10
2023-04-16T07:03:23.761Z,64.13
2023-04-16T07:04:23.718Z,62.04
2023-04-16T07:05:23.660Z,62.36
2023-04-16T07:06:23.630Z,60.91
2023-04-16T07:07:23.558Z,61.55
2023-04-16T07:08:40.614Z,59.30
2023-04-16T07:09:23.551Z,63.16
2023-04-16T07:10:23.628Z,61.07
2023-04-16T07:11:23.518Z,60.91
2023-04-16T07:12:23.485Z,60.26
2023-04-16T07:13:23.493Z,63.16
2023-04-16T07:14:23.575Z,62.68
2023-04-16T07:15:23.441Z,63.49
2023-04-16T07:16:24.465Z,61.23
2023-04-16T07:17:23.439Z,62.20
2023-04-16T07:18:23.447Z,63.49
2023-04-16T07:19:23.474Z,61.39
2023-04-16T07:20:23.595Z,65.10
2023-04-16T07:21:23.518Z,63.97
2023-04-16T07:22:23.523Z,65.26
2023-04-16T07:23:23.472Z,64.29
2023-04-16T07:24:23.490Z,65.26
2023-04-16T07:25:23.437Z,64.78
2023-04-16T07:26:23.522Z,66.71
2023-04-16T07:27:23.561Z,67.68
2023-04-16T07:28:23.412Z,66.06
2023-04-16T07:29:23.456Z,65.42
2023-04-16T07:30:23.463Z,64.61
2023-04-16T07:31:23.480Z,65.58
2023-04-16T07:32:23.610Z,64.94
2023-04-16T07:33:23.447Z,64.29
2023-04-16T07:34:23.408Z,65.58
2023-04-16T07:35:23.448Z,65.42
2023-04-16T07:36:23.375Z,63.49
2023-04-16T07:37:23.428Z,63.49
2023-04-16T07:38:23.894Z,63.81
2023-04-16T07:39:23.487Z,64.29
2023-04-16T07:40:23.246Z,64.78
2023-04-16T07:41:23.270Z,64.13
2023-04-16T07:42:23.241Z,66.55
2023-04-16T07:43:23.414Z,62.84
2023-04-16T07:44:23.278Z,63.65
2023-04-16T07:45:23.492Z,64.78
2023-04-16T07:46:24.869Z,70.74
2023-04-16T07:47:39.103Z,63.65
2023-04-16T07:48:24.283Z,65.90
2023-04-16T07:49:23.231Z,67.68
2023-04-16T07:50:23.305Z,63.81
2023-04-16T07:51:23.286Z,62.36
2023-04-16T07:52:23.259Z,63.33
2023-04-16T07:53:23.290Z,66.23
2023-04-16T07:54:23.282Z,63.65
2023-04-16T07:55:23.241Z,63.49
2023-04-16T07:56:23.277Z,62.04
2023-04-16T07:57:23.246Z,66.23
2023-04-16T07:58:23.273Z,62.52
2023-04-16T07:59:24.383Z,64.45
2023-04-16T08:00:24.217Z,62.84
2023-04-16T08:01:23.310Z,64.29
2023-04-16T08:02:23.200Z,63.65
2023-04-16T08:03:23.555Z,63.97
2023-04-16T08:04:23.613Z,63.81
2023-04-16T08:05:23.233Z,61.55
2023-04-16T08:06:23.215Z,64.78
2023-04-16T08:07:23.170Z,64.13
2023-04-16T08:08:23.213Z,61.87
2023-04-16T08:09:23.207Z,66.71
2023-04-16T08:10:23.361Z,65.74
2023-04-16T08:11:23.120Z,61.71
2023-04-16T08:12:23.108Z,63.16
2023-04-16T08:13:23.155Z,65.58
2023-04-16T08:14:23.155Z,65.10
2023-04-16T08:15:23.056Z,63.81
2023-04-16T08:16:23.124Z,65.74
2023-04-16T08:17:23.019Z,65.26
2023-04-16T08:18:22.983Z,62.20
2023-04-16T08:19:22.935Z,66.06
2023-04-16T08:20:22.983Z,64.94
2023-04-16T08:21:23.089Z,67.35
2023-04-16T08:22:23.139Z,63.33
2023-04-16T08:23:23.268Z,62.20
2023-04-16T08:24:23.047Z,64.78
2023-04-16T08:25:23.113Z,68.00
2023-04-16T08:26:23.190Z,63.65
2023-04-16T08:27:23.065Z,67.03
2023-04-16T08:28:23.126Z,63.81
2023-04-16T08:29:22.995Z,61.07
2023-04-16T08:30:23.036Z,63.49
2023-04-16T08:31:23.044Z,64.78
2023-04-16T08:32:23.564Z,62.84
2023-04-16T08:33:23.003Z,64.29
2023-04-16T08:34:22.940Z,64.78
2023-04-16T08:35:22.931Z,64.45
2023-04-16T08:36:22.971Z,63.33
2023-04-16T08:37:23.043Z,62.84
2023-04-16T08:38:22.924Z,64.78
2023-04-16T08:39:22.969Z,63.97
2023-04-16T08:40:22.980Z,64.94
2023-04-16T08:41:23.119Z,66.71
2023-04-16T08:42:23.006Z,65.74
2023-04-16T08:43:23.309Z,66.55
2023-04-16T08:44:22.938Z,70.90
2023-04-16T08:45:43.636Z,63.81
2023-04-16T08:46:22.865Z,65.42
2023-04-16T08:47:22.885Z,67.19
2023-04-16T08:48:22.807Z,61.87
2023-04-16T08:49:22.810Z,63.65
2023-04-16T08:51:22.944Z,62.52
2023-04-16T08:52:22.820Z,64.94
2023-04-16T08:53:22.895Z,64.61
2023-04-16T08:54:22.853Z,65.42
2023-04-16T08:55:22.858Z,65.10
2023-04-16T08:56:22.794Z,64.94
2023-04-16T08:57:22.771Z,65.58
2023-04-16T08:58:22.904Z,68.64
2023-04-16T08:59:22.847Z,68.00
2023-04-16T09:00:22.787Z,68.16
2023-04-16T09:01:22.801Z,65.90
2023-04-16T09:02:23.124Z,67.19
2023-04-16T09:03:22.804Z,66.39
2023-04-16T09:04:22.810Z,67.68
2023-04-16T09:05:22.831Z,68.16
2023-04-16T09:06:22.817Z,70.58
2023-04-16T09:08:22.633Z,69.45
2023-04-16T09:09:22.711Z,68.16
2023-04-16T09:10:22.745Z,69.61
2023-04-16T09:11:22.593Z,67.84
2023-04-16T09:12:22.780Z,67.19
2023-04-16T09:13:22.610Z,62.52
2023-04-16T09:14:23.035Z,63.33
2023-04-16T09:15:22.824Z,66.87
2023-04-16T09:16:22.871Z,65.74
2023-04-16T09:17:23.021Z,63.81
2023-04-16T09:18:22.736Z,66.87
2023-04-16T09:19:22.634Z,65.42
2023-04-16T09:20:22.669Z,62.68
2023-04-16T09:21:24.036Z,66.39
2023-04-16T09:22:23.686Z,67.19
2023-04-16T09:23:22.616Z,63.33
2023-04-16T09:24:22.656Z,67.35
2023-04-16T09:25:22.590Z,67.35
2023-04-16T09:26:22.772Z,65.58
2023-04-16T09:27:24.724Z,66.87
2023-04-16T09:28:22.711Z,66.71
2023-04-16T09:29:22.559Z,64.13
2023-04-16T09:30:22.687Z,64.94
2023-04-16T09:31:22.537Z,64.94
2023-04-16T09:32:22.568Z,63.33
2023-04-16T09:33:23.055Z,66.06
2023-04-16T09:34:22.481Z,66.55
2023-04-16T09:35:22.546Z,68.96
2023-04-16T09:36:22.542Z,65.42
2023-04-16T09:37:22.493Z,67.35
2023-04-16T09:38:22.426Z,68.64
2023-04-16T09:39:22.487Z,66.55
2023-04-16T09:40:22.579Z,66.55
2023-04-16T09:41:22.474Z,66.06
2023-04-16T09:42:23.563Z,65.42
2023-04-16T09:43:22.572Z,63.49
2023-04-16T09:44:22.436Z,64.78
2023-04-16T09:45:22.533Z,66.71
2023-04-16T09:46:23.675Z,67.51
2023-04-16T09:47:22.530Z,63.16
2023-04-16T09:48:22.850Z,63.81
2023-04-16T09:49:33.524Z,65.10
2023-04-16T09:50:22.458Z,66.71
2023-04-16T09:51:22.575Z,62.36
2023-04-16T09:52:22.314Z,63.65
2023-04-16T09:53:22.584Z,63.97
2023-04-16T09:54:22.400Z,64.94
2023-04-16T09:55:23.345Z,66.71
2023-04-16T09:56:22.401Z,67.19
2023-04-16T09:57:22.506Z,66.06
2023-04-16T09:58:22.475Z,66.23
2023-04-16T09:59:22.556Z,68.48
2023-04-16T10:00:23.058Z,67.51
2023-04-16T10:01:22.909Z,64.61
2023-04-16T10:02:22.419Z,65.10
2023-04-16T10:03:22.458Z,65.26
2023-04-16T10:04:22.829Z,66.87
2023-04-16T10:05:22.397Z,65.74
2023-04-16T10:06:22.573Z,64.29
2023-04-16T10:07:23.204Z,64.94
2023-04-16T10:08:22.511Z,66.71
2023-04-16T10:09:22.667Z,66.71
2023-04-16T10:10:22.545Z,68.96
2023-04-16T10:11:22.836Z,71.22
2023-04-16T10:12:22.590Z,69.77
2023-04-16T10:13:22.370Z,65.58
2023-04-16T10:14:22.367Z,65.26
2023-04-16T10:15:23.020Z,65.10
2023-04-16T10:16:22.304Z,68.00
2023-04-16T10:17:22.682Z,66.71
2023-04-16T10:18:22.397Z,67.35
2023-04-16T10:19:22.323Z,66.71
2023-04-16T10:20:22.626Z,69.13
2023-04-16T10:21:22.530Z,69.61
2023-04-16T10:22:22.448Z,69.29
2023-04-16T10:23:22.259Z,66.55
2023-04-16T10:24:22.267Z,65.90
2023-04-16T10:25:22.269Z,66.23
2023-04-16T10:26:22.178Z,65.74
2023-04-16T10:27:22.066Z,65.74
2023-04-16T10:28:22.358Z,64.61
2023-04-16T10:29:22.204Z,64.61
2023-04-16T10:30:22.293Z,66.55
2023-04-16T10:31:22.423Z,63.16
2023-04-16T10:32:22.495Z,64.29
2023-04-16T10:33:22.520Z,64.45
2023-04-16T10:34:22.099Z,64.45
2023-04-16T10:35:22.214Z,61.71
2023-04-16T10:36:22.079Z,64.61
2023-04-16T10:37:23.378Z,68.48
2023-04-16T10:38:22.193Z,68.00
2023-04-16T10:39:22.203Z,67.03
2023-04-16T10:40:22.347Z,65.26
2023-04-16T10:41:22.383Z,73.32
2023-04-16T10:42:22.271Z,64.13
2023-04-16T10:43:22.601Z,65.42
2023-04-16T10:44:21.955Z,64.45
2023-04-16T10:45:22.732Z,63.81
2023-04-16T10:46:22.623Z,63.00
2023-04-16T10:47:22.229Z,61.39
2023-04-16T10:48:22.589Z,62.04
2023-04-16T10:49:22.446Z,63.00
2023-04-16T10:50:22.143Z,63.49
2023-04-16T10:51:22.157Z,67.68
2023-04-16T10:52:22.046Z,66.39
2023-04-16T10:53:22.068Z,63.81
2023-04-16T10:54:22.238Z,66.87
2023-04-16T10:55:22.212Z,65.58
2023-04-16T10:56:22.079Z,63.33
2023-04-16T10:57:22.509Z,66.39
2023-04-16T10:58:22.778Z,65.26
2023-04-16T10:59:21.864Z,65.26
2023-04-16T11:00:22.242Z,64.45
2023-04-16T11:01:22.078Z,66.23
2023-04-16T11:02:22.237Z,66.06
2023-04-16T11:03:22.271Z,66.55
2023-04-16T11:04:22.672Z,67.03
2023-04-16T11:05:22.578Z,63.81
2023-04-16T11:06:21.870Z,63.81
2023-04-16T11:07:21.952Z,62.36
2023-04-16T11:08:21.907Z,65.58
2023-04-16T11:09:22.236Z,66.06
2023-04-16T11:10:22.047Z,67.19
2023-04-16T11:11:22.461Z,67.19
2023-04-16T11:12:21.915Z,67.68
2023-04-16T11:13:21.878Z,66.71
2023-04-16T11:14:22.102Z,66.06
2023-04-16T11:15:21.990Z,66.55
2023-04-16T11:16:22.135Z,61.39
2023-04-16T11:17:21.979Z,63.00
2023-04-16T11:18:22.344Z,70.74
2023-04-16T11:19:22.213Z,67.51
2023-04-16T11:20:22.530Z,61.07
2023-04-16T11:21:22.326Z,61.55
2023-04-16T11:22:22.461Z,63.00
2023-04-16T11:23:22.361Z,62.20
2023-04-16T11:24:21.994Z,63.97
2023-04-16T11:25:22.306Z,63.00
2023-04-16T11:26:22.204Z,62.04
2023-04-16T11:27:22.282Z,64.29
2023-04-16T11:28:22.283Z,63.16
2023-04-16T11:29:22.331Z,63.49
2023-04-16T11:30:22.199Z,65.58
2023-04-16T11:31:22.130Z,66.55
2023-04-16T11:32:22.257Z,64.94
2023-04-16T11:33:21.860Z,66.23
2023-04-16T11:34:22.084Z,66.39
2023-04-16T11:35:22.429Z,65.58
2023-04-16T11:36:21.975Z,66.55
2023-04-16T11:37:22.182Z,65.42
2023-04-16T11:38:21.915Z,65.90
2023-04-16T11:39:22.259Z,62.68
2023-04-16T11:40:21.786Z,62.36
2023-04-16T11:41:21.905Z,62.04
2023-04-16T11:42:22.162Z,62.36
2023-04-16T11:43:21.886Z,62.68
2023-04-16T11:44:21.840Z,62.68
2023-04-16T11:45:21.955Z,64.61
2023-04-16T11:46:27.755Z,66.39
2023-04-16T11:47:24.285Z,64.61
2023-04-16T11:48:22.225Z,64.13
2023-04-16T11:49:22.133Z,63.00
2023-04-16T11:50:22.057Z,64.45
2023-04-16T11:51:22.149Z,61.87
2023-04-16T11:52:22.082Z,66.87
2023-04-16T11:53:22.067Z,64.94
2023-04-16T11:54:22.121Z,63.65
2023-04-16T11:55:21.769Z,63.81
2023-04-16T11:56:21.595Z,64.94
2023-04-16T11:57:22.323Z,63.33
2023-04-16T11:58:22.127Z,61.71
2023-04-16T11:59:21.927Z,63.33
2023-04-16T12:00:24.573Z,66.55
2023-04-16T12:01:21.930Z,65.58
2023-04-16T12:02:21.952Z,64.78
2023-04-16T12:03:22.220Z,64.45
2023-04-16T12:04:22.257Z,61.71
2023-04-16T12:05:21.924Z,62.52
2023-04-16T12:06:23.289Z,61.39
2023-04-16T12:07:22.126Z,60.75
2023-04-16T12:08:21.913Z,60.91
2023-04-16T12:09:22.134Z,64.45
2023-04-16T12:10:21.811Z,64.13
2023-04-16T12:11:21.971Z,63.33
2023-04-16T12:12:21.759Z,66.55
2023-04-16T12:13:21.936Z,68.16
2023-04-16T12:14:22.001Z,65.42
2023-04-16T12:15:22.387Z,64.29
2023-04-16T12:16:21.773Z,61.55
2023-04-16T12:17:22.037Z,63.33
2023-04-16T12:18:21.751Z,66.55
2023-04-16T12:19:21.829Z,65.58
2023-04-16T12:20:22.055Z,67.51
2023-04-16T12:21:21.652Z,65.26
2023-04-16T12:22:21.566Z,65.42
2023-04-16T12:23:21.930Z,65.26
2023-04-16T12:24:21.729Z,65.26
2023-04-16T12:25:21.777Z,64.45
2023-04-16T12:26:22.146Z,65.10
2023-04-16T12:27:21.781Z,62.52
2023-04-16T12:28:21.486Z,62.52
2023-04-16T12:29:21.767Z,61.07
2023-04-16T12:30:21.385Z,63.16
2023-04-16T12:31:22.158Z,62.36
2023-04-16T12:32:21.978Z,62.68
2023-04-16T12:33:21.676Z,65.26
2023-04-16T12:34:21.498Z,62.36
2023-04-16T12:35:22.792Z,62.68
2023-04-16T12:36:21.754Z,63.33
2023-04-16T12:37:30.437Z,62.04
2023-04-16T12:38:24.295Z,63.65
2023-04-16T12:39:21.557Z,64.78
2023-04-16T12:40:21.940Z,64.45
2023-04-16T12:41:21.894Z,69.77
2023-04-16T12:42:22.022Z,63.81
2023-04-16T12:43:21.917Z,60.75
2023-04-16T12:44:21.722Z,61.87
2023-04-16T12:45:21.624Z,61.39
2023-04-16T12:46:21.290Z,62.68
2023-04-16T12:47:21.846Z,64.45
2023-04-16T12:48:21.612Z,65.58
2023-04-16T12:49:22.602Z,68.48
2023-04-16T12:50:21.654Z,64.61
2023-04-16T12:51:21.805Z,65.74
2023-04-16T12:52:23.786Z,65.26
2023-04-16T12:53:23.011Z,63.65
2023-04-16T12:54:21.729Z,62.52
2023-04-16T12:55:21.704Z,64.29
2023-04-16T12:56:21.670Z,63.00
2023-04-16T12:57:21.251Z,59.46
2023-04-16T12:58:21.244Z,62.20
2023-04-16T12:59:21.407Z,61.39
2023-04-16T13:00:21.520Z,61.71
2023-04-16T13:01:21.299Z,62.20
2023-04-16T13:02:21.118Z,61.87
2023-04-16T13:03:21.367Z,64.13
2023-04-16T13:04:22.724Z,63.97
2023-04-16T13:05:21.367Z,63.00
2023-04-16T13:06:21.509Z,64.45
2023-04-16T13:07:21.383Z,65.10
2023-04-16T13:08:21.100Z,65.90
2023-04-16T13:09:21.149Z,62.68
2023-04-16T13:10:21.026Z,65.58
2023-04-16T13:11:20.999Z,64.29
2023-04-16T13:12:21.103Z,64.61
2023-04-16T13:13:21.247Z,64.78
2023-04-16T13:14:21.772Z,61.55
2023-04-16T13:15:21.221Z,60.59
2023-04-16T13:16:21.477Z,62.04
2023-04-16T13:17:21.343Z,62.20
2023-04-16T13:18:21.127Z,63.65
2023-04-16T13:19:20.939Z,59.46
2023-04-16T13:20:23.179Z,61.87
2023-04-16T13:21:21.468Z,62.84
2023-04-16T13:22:20.909Z,62.52
2023-04-16T13:23:20.953Z,62.04
2023-04-16T13:24:21.044Z,61.39
2023-04-16T13:25:21.336Z,62.36
2023-04-16T13:26:20.925Z,62.04
2023-04-16T13:27:20.900Z,58.97
2023-04-16T13:28:20.901Z,60.59
2023-04-16T13:29:21.030Z,61.07
2023-04-16T13:30:20.779Z,61.55
2023-04-16T13:31:21.004Z,60.91
2023-04-16T13:32:20.857Z,62.52
2023-04-16T13:33:20.911Z,63.49
2023-04-16T13:34:21.002Z,61.55
2023-04-16T13:35:20.911Z,61.39
2023-04-16T13:36:20.854Z,61.87
2023-04-16T13:37:20.847Z,60.91
2023-04-16T13:38:21.064Z,60.42
2023-04-16T14:27:42.652Z,71.87
2023-04-16T14:28:42.624Z,70.90
2023-04-16T14:29:43.082Z,63.00
2023-04-16T14:35:12.017Z,64.13
2023-04-16T14:36:11.701Z,64.45
2023-04-16T14:37:11.537Z,64.13
2023-04-16T14:38:11.660Z,63.16
2023-04-16T14:39:12.041Z,66.55
2023-04-16T14:40:11.938Z,67.19
2023-04-16T14:41:45.206Z,64.13
2023-04-16T14:42:11.519Z,60.26
2023-04-16T14:43:11.548Z,64.61
2023-04-16T14:44:11.581Z,60.75
2023-04-16T14:45:12.393Z,60.10
2023-04-16T14:46:11.547Z,60.75
2023-04-16T14:47:12.596Z,63.33
2023-04-16T14:48:11.724Z,65.26
2023-04-16T14:49:12.525Z,66.06
2023-04-16T14:50:12.806Z,66.06
2023-04-16T14:51:11.369Z,66.55
2023-04-16T14:52:10.938Z,66.55
2023-04-16T14:53:11.242Z,59.30
2023-04-16T14:58:20.891Z,61.07
2023-04-16T14:59:21.530Z,61.39
2023-04-16T15:00:21.340Z,65.42
2023-04-16T15:01:21.036Z,62.04
2023-04-16T15:02:21.084Z,62.52
2023-04-16T15:03:21.352Z,61.23
2023-04-16T15:04:20.459Z,61.23
2023-04-16T15:05:20.624Z,62.20
2023-04-16T15:06:20.289Z,62.52
2023-04-16T15:07:20.610Z,63.16
2023-04-16T15:08:20.492Z,62.52